createdAt,value
2018-08-27T00:00:26.094Z,4.00
2018-08-27T00:01:26.080Z,4.00
2018-08-27T00:02:26.064Z,4.00
2018-08-27T00:03:26.058Z,4.00
2018-08-27T00:04:26.028Z,4.00
2018-08-27T00:05:26.012Z,4.00
2018-08-27T00:06:26.002Z,4.00
2018-08-27T00:07:25.998Z,4.00
2018-08-27T00:08:25.966Z,4.00
2018-08-27T00:09:25.947Z,4.00
2018-08-27T00:10:25.934Z,4.00
2018-08-27T00:11:25.918Z,4.00
2018-08-27T00:12:25.904Z,4.00
2018-08-27T00:13:25.882Z,4.00
2018-08-27T00:14:25.868Z,4.00
2018-08-27T00:15:25.851Z,4.00
2018-08-27T00:16:25.838Z,4.00
2018-08-27T00:17:25.817Z,4.00
2018-08-27T00:18:25.803Z,4.00
2018-08-27T00:19:25.785Z,4.00
2018-08-27T00:20:25.769Z,4.00
2018-08-27T00:21:25.752Z,4.00
2018-08-27T00:22:25.734Z,4.00
2018-08-27T00:23:25.719Z,4.00
2018-08-27T00:24:25.706Z,4.00
2018-08-27T00:25:25.733Z,4.00
2018-08-27T00:26:25.669Z,4.00
2018-08-27T00:27:25.658Z,4.00
2018-08-27T00:28:25.642Z,4.00
2018-08-27T00:29:25.619Z,4.00
2018-08-27T00:30:25.605Z,4.00
2018-08-27T00:31:25.588Z,4.00
2018-08-27T00:32:25.572Z,4.00
2018-08-27T00:33:25.554Z,4.00
2018-08-27T00:34:25.538Z,4.00
2018-08-27T00:35:25.522Z,4.00
2018-08-27T00:36:25.506Z,4.00
2018-08-27T00:37:25.490Z,4.00
2018-08-27T00:38:25.485Z,4.00
2018-08-27T00:39:25.461Z,4.00
2018-08-27T00:40:25.441Z,4.00
2018-08-27T00:41:25.425Z,4.00
2018-08-27T00:42:25.413Z,4.00
2018-08-27T00:43:25.538Z,4.00
2018-08-27T00:44:25.377Z,4.00
2018-08-27T00:45:25.359Z,4.00
2018-08-27T00:46:25.343Z,4.00
2018-08-27T00:47:25.329Z,4.00
2018-08-27T00:48:25.308Z,4.00
2018-08-27T00:49:25.293Z,4.00
2018-08-27T00:50:25.276Z,4.00
2018-08-27T00:51:25.264Z,4.00
2018-08-27T00:52:25.262Z,4.00
2018-08-27T00:53:25.232Z,4.00
2018-08-27T00:54:25.212Z,4.00
2018-08-27T00:55:25.207Z,4.00
2018-08-27T00:56:25.180Z,4.00
2018-08-27T00:57:25.164Z,4.00
2018-08-27T00:58:25.149Z,4.00
2018-08-27T00:59:25.133Z,4.00
2018-08-27T01:00:25.113Z,4.00
2018-08-27T01:01:25.098Z,4.00
2018-08-27T01:02:25.080Z,4.00
2018-08-27T01:03:25.063Z,4.00
2018-08-27T01:04:25.057Z,4.00
2018-08-27T01:05:25.030Z,4.00
2018-08-27T01:06:25.019Z,4.00
2018-08-27T01:07:25.005Z,4.00
2018-08-27T01:08:24.983Z,4.00
2018-08-27T01:09:24.978Z,4.00
2018-08-27T01:10:25.036Z,4.00
2018-08-27T01:11:24.935Z,4.00
2018-08-27T01:12:24.918Z,4.00
2018-08-27T01:13:24.939Z,4.00
2018-08-27T01:14:24.895Z,4.00
2018-08-27T01:15:24.870Z,4.00
2018-08-27T01:16:24.849Z,4.00
2018-08-27T01:17:24.836Z,4.00
2018-08-27T01:18:24.817Z,4.00
2018-08-27T01:19:24.802Z,4.00
2018-08-27T01:20:24.801Z,4.00
2018-08-27T01:21:24.770Z,4.00
2018-08-27T01:22:24.804Z,4.00
2018-08-27T01:23:24.735Z,4.00
2018-08-27T01:24:24.729Z,4.00
2018-08-27T01:25:24.702Z,4.00
2018-08-27T01:26:24.691Z,4.00
2018-08-27T01:27:24.669Z,4.00
2018-08-27T01:28:24.653Z,4.00
2018-08-27T01:29:24.740Z,4.00
2018-08-27T01:30:24.626Z,4.00
2018-08-27T01:31:24.608Z,4.00
2018-08-27T01:32:24.589Z,4.00
2018-08-27T01:33:24.573Z,4.00
2018-08-27T01:34:24.565Z,4.00
2018-08-27T01:35:24.540Z,4.00
2018-08-27T01:36:24.525Z,4.00
2018-08-27T01:37:24.508Z,4.00
2018-08-27T01:38:24.521Z,4.00
2018-08-27T01:39:24.481Z,4.00
2018-08-27T01:40:24.465Z,4.00
2018-08-27T01:41:24.445Z,4.00
2018-08-27T01:42:24.430Z,4.00
2018-08-27T01:43:24.410Z,4.00
2018-08-27T01:44:24.394Z,4.00
2018-08-27T01:45:24.532Z,4.00
2018-08-27T01:46:24.364Z,4.00
2018-08-27T01:47:24.347Z,4.00
2018-08-27T01:48:24.394Z,4.00
2018-08-27T01:49:24.315Z,4.00
2018-08-27T01:50:24.299Z,4.00
2018-08-27T01:51:24.280Z,4.00
2018-08-27T01:52:24.264Z,4.00
2018-08-27T01:53:24.250Z,4.00
2018-08-27T01:54:24.234Z,4.00
2018-08-27T01:55:24.216Z,4.00
2018-08-27T01:56:24.200Z,4.00
2018-08-27T01:57:24.185Z,4.00
2018-08-27T01:58:24.168Z,4.00
2018-08-27T01:59:24.154Z,4.00
2018-08-27T02:00:24.137Z,4.00
2018-08-27T02:01:24.129Z,4.00
2018-08-27T02:02:24.104Z,4.00
2018-08-27T02:03:24.090Z,4.00
2018-08-27T02:04:24.082Z,4.00
2018-08-27T02:05:24.053Z,4.00
2018-08-27T02:06:24.038Z,4.00
2018-08-27T02:07:24.023Z,4.00
2018-08-27T02:08:24.013Z,4.00
2018-08-27T02:09:24.000Z,4.00
2018-08-27T02:10:23.973Z,4.00
2018-08-27T02:11:23.958Z,4.00
2018-08-27T02:12:24.032Z,4.00
2018-08-27T02:13:23.926Z,4.00
2018-08-27T02:14:23.914Z,4.00
2018-08-27T02:15:23.892Z,4.00
2018-08-27T02:16:23.875Z,4.00
2018-08-27T02:17:23.863Z,4.00
2018-08-27T02:18:23.845Z,4.00
2018-08-27T02:19:23.828Z,4.00
2018-08-27T02:20:23.808Z,4.00
2018-08-27T02:21:23.795Z,4.00
2018-08-27T02:22:23.777Z,4.00
2018-08-27T02:23:23.761Z,4.00
2018-08-27T02:24:23.747Z,4.00
2018-08-27T02:25:23.729Z,4.00
2018-08-27T02:26:23.713Z,4.00
2018-08-27T02:27:23.702Z,4.00
2018-08-27T02:28:23.681Z,4.00
2018-08-27T02:29:23.666Z,4.00
2018-08-27T02:30:23.652Z,4.00
2018-08-27T02:31:23.633Z,4.00
2018-08-27T02:32:23.691Z,4.00
2018-08-27T02:33:23.601Z,4.00
2018-08-27T02:34:23.620Z,4.00
2018-08-27T02:35:23.567Z,4.00
2018-08-27T02:36:23.553Z,4.00
2018-08-27T02:37:23.535Z,4.00
2018-08-27T02:38:23.521Z,4.00
2018-08-27T02:39:23.501Z,4.00
2018-08-27T02:40:23.494Z,4.00
2018-08-27T02:41:23.470Z,4.00
2018-08-27T02:42:23.453Z,4.00
2018-08-27T02:43:23.441Z,4.00
2018-08-27T02:44:23.421Z,4.00
2018-08-27T02:45:23.411Z,4.00
2018-08-27T02:46:23.388Z,4.00
2018-08-27T02:47:23.375Z,4.00
2018-08-27T02:48:23.356Z,4.00
2018-08-27T02:49:23.338Z,4.00
2018-08-27T02:50:23.325Z,4.00
2018-08-27T02:51:23.309Z,4.00
2018-08-27T02:52:23.293Z,4.00
2018-08-27T02:53:23.274Z,4.00
2018-08-27T02:54:23.259Z,4.00
2018-08-27T02:55:23.293Z,4.00
2018-08-27T02:56:23.239Z,4.00
2018-08-27T02:57:23.211Z,4.00
2018-08-27T02:58:23.247Z,4.00
2018-08-27T02:59:23.178Z,4.00
2018-08-27T03:00:23.160Z,4.00
2018-08-27T03:01:23.196Z,4.00
2018-08-27T03:02:23.127Z,4.00
2018-08-27T03:03:23.113Z,4.00
2018-08-27T03:04:23.095Z,4.00
2018-08-27T03:05:23.084Z,4.00
2018-08-27T03:06:23.064Z,4.00
2018-08-27T03:07:23.049Z,4.00
2018-08-27T03:08:23.028Z,4.00
2018-08-27T03:09:23.011Z,4.00
2018-08-27T03:10:22.997Z,4.00
2018-08-27T03:11:22.987Z,4.00
2018-08-27T03:12:22.962Z,4.00
2018-08-27T03:13:22.952Z,4.00
2018-08-27T03:14:22.932Z,4.00
2018-08-27T03:15:22.921Z,4.00
2018-08-27T03:16:22.904Z,4.00
2018-08-27T03:17:22.932Z,4.00
2018-08-27T03:18:22.876Z,4.00
2018-08-27T03:19:22.848Z,4.00
2018-08-27T03:20:22.834Z,4.00
2018-08-27T03:21:22.813Z,4.00
2018-08-27T03:22:22.799Z,4.00
2018-08-27T03:23:22.792Z,4.00
2018-08-27T03:24:22.764Z,4.00
2018-08-27T03:25:22.749Z,4.00
2018-08-27T03:26:22.732Z,4.00
2018-08-27T03:27:22.716Z,4.00
2018-08-27T03:28:22.699Z,4.00
2018-08-27T03:29:22.686Z,4.00
2018-08-27T03:30:22.664Z,4.00
2018-08-27T03:31:22.657Z,4.00
2018-08-27T03:32:22.632Z,4.00
2018-08-27T03:33:22.615Z,4.00
2018-08-27T03:34:22.599Z,4.00
2018-08-27T03:35:22.596Z,4.00
2018-08-27T03:36:22.566Z,4.00
2018-08-27T03:37:22.550Z,4.00
2018-08-27T03:38:22.530Z,4.00
2018-08-27T03:39:22.516Z,4.00
2018-08-27T03:40:22.497Z,4.00
2018-08-27T03:41:22.483Z,4.00
2018-08-27T03:42:22.466Z,4.00
2018-08-27T03:43:22.448Z,4.00
2018-08-27T03:44:22.449Z,4.00
2018-08-27T03:45:22.416Z,4.00
2018-08-27T03:46:22.397Z,4.00
2018-08-27T03:47:22.381Z,4.00
2018-08-27T03:48:22.413Z,4.00
2018-08-27T03:49:22.347Z,4.00
2018-08-27T03:50:22.338Z,4.00
2018-08-27T03:51:22.314Z,4.00
2018-08-27T03:52:22.296Z,4.00
2018-08-27T03:53:22.279Z,4.00
2018-08-27T03:54:22.262Z,4.00
2018-08-27T03:55:22.247Z,4.00
2018-08-27T03:56:22.233Z,4.00
2018-08-27T03:57:22.211Z,4.00
2018-08-27T03:58:22.196Z,4.00
2018-08-27T03:59:22.179Z,4.00
2018-08-27T04:00:22.163Z,8.00
2018-08-27T04:01:22.145Z,8.00
2018-08-27T04:02:22.129Z,4.00
2018-08-27T04:03:22.111Z,4.00
2018-08-27T04:04:22.094Z,4.00
2018-08-27T04:05:22.106Z,4.00
2018-08-27T04:06:22.164Z,4.00
2018-08-27T04:07:22.045Z,8.00
2018-08-27T04:08:22.027Z,8.00
2018-08-27T04:09:22.010Z,4.00
2018-08-27T04:10:21.995Z,8.00
2018-08-27T04:11:21.977Z,8.00
2018-08-27T04:12:21.973Z,8.00
2018-08-27T04:13:21.942Z,8.00
2018-08-27T04:14:21.925Z,12.00
2018-08-27T04:15:21.912Z,12.00
2018-08-27T04:16:21.893Z,8.00
2018-08-27T04:17:21.875Z,12.00
2018-08-27T04:18:21.858Z,12.00
2018-08-27T04:19:21.843Z,12.00
2018-08-27T04:20:21.823Z,16.00
2018-08-27T04:21:21.824Z,16.00
2018-08-27T04:22:21.791Z,20.00
2018-08-27T04:23:21.776Z,20.00
2018-08-27T04:24:21.761Z,28.00
2018-08-27T04:25:21.750Z,32.00
2018-08-27T04:26:21.726Z,36.00
2018-08-27T04:27:21.706Z,40.00
2018-08-27T04:28:21.687Z,48.00
2018-08-27T04:29:21.672Z,60.00
2018-08-27T04:30:21.658Z,68.00
2018-08-27T04:31:21.640Z,76.00
2018-08-27T04:32:21.621Z,88.00
2018-08-27T04:33:21.606Z,100.00
2018-08-27T04:34:21.589Z,112.00
2018-08-27T04:35:21.569Z,124.00
2018-08-27T04:36:21.555Z,136.00
2018-08-27T04:37:21.539Z,152.00
2018-08-27T04:38:21.528Z,164.00
2018-08-27T04:39:21.506Z,172.00
2018-08-27T04:40:21.486Z,172.00
2018-08-27T04:41:21.473Z,164.00
2018-08-27T04:42:21.467Z,172.00
2018-08-27T04:43:21.437Z,180.00
2018-08-27T04:44:21.418Z,188.00
2018-08-27T04:45:21.402Z,192.00
2018-08-27T04:46:21.385Z,192.00
2018-08-27T04:47:21.369Z,192.00
2018-08-27T04:48:21.353Z,208.00
2018-08-27T04:49:21.342Z,212.00
2018-08-27T04:50:21.316Z,212.00
2018-08-27T04:51:21.300Z,216.00
2018-08-27T04:52:21.282Z,200.00
2018-08-27T04:53:21.270Z,220.00
2018-08-27T04:54:21.251Z,248.00
2018-08-27T04:55:21.231Z,260.00
2018-08-27T04:56:21.215Z,264.00
2018-08-27T04:57:21.197Z,272.00
2018-08-27T04:58:21.181Z,288.00
2018-08-27T04:59:21.164Z,332.00
2018-08-27T05:00:21.146Z,332.00
2018-08-27T05:01:21.132Z,336.00
2018-08-27T05:02:21.114Z,344.00
2018-08-27T05:03:21.097Z,352.00
2018-08-27T05:04:21.078Z,372.00
2018-08-27T05:05:21.061Z,400.00
2018-08-27T05:06:21.044Z,424.00
2018-08-27T05:07:21.031Z,452.00
2018-08-27T05:08:21.011Z,520.00
2018-08-27T05:09:20.993Z,540.00
2018-08-27T05:10:20.978Z,500.00
2018-08-27T05:11:20.965Z,484.00
2018-08-27T05:12:20.942Z,444.00
2018-08-27T05:13:20.929Z,472.00
2018-08-27T05:14:20.908Z,464.00
2018-08-27T05:15:20.899Z,436.00
2018-08-27T05:16:20.895Z,440.00
2018-08-27T05:17:20.858Z,444.00
2018-08-27T05:18:20.845Z,456.00
2018-08-27T05:19:20.951Z,560.00
2018-08-27T05:20:20.811Z,752.00
2018-08-27T05:21:20.791Z,900.00
2018-08-27T05:22:20.776Z,908.00
2018-08-27T05:23:20.756Z,1000.00
2018-08-27T05:24:20.739Z,1196.00
2018-08-27T05:25:20.726Z,1056.00
2018-08-27T05:26:20.715Z,1140.00
2018-08-27T05:27:20.688Z,1268.00
2018-08-27T05:28:20.669Z,1416.00
2018-08-27T05:29:20.656Z,1300.00
2018-08-27T05:30:20.634Z,1408.00
2018-08-27T05:31:20.649Z,1528.00
2018-08-27T05:32:20.600Z,1728.00
2018-08-27T05:33:20.587Z,1652.00
2018-08-27T05:34:20.568Z,1908.00
2018-08-27T05:35:20.637Z,2120.00
2018-08-27T05:36:20.532Z,2016.00
2018-08-27T05:37:20.519Z,2216.00
2018-08-27T05:38:20.572Z,2000.00
2018-08-27T05:39:20.481Z,1916.00
2018-08-27T05:40:20.463Z,1816.00
2018-08-27T05:41:20.455Z,1752.00
2018-08-27T05:42:20.436Z,1636.00
2018-08-27T05:43:20.416Z,1572.00
2018-08-27T05:44:20.440Z,1632.00
2018-08-27T05:45:20.378Z,1592.00
2018-08-27T05:46:20.364Z,1836.00
2018-08-27T05:47:20.342Z,1752.00
2018-08-27T05:48:20.326Z,1828.00
2018-08-27T05:49:20.327Z,1836.00
2018-08-27T05:50:20.292Z,2156.00
2018-08-27T05:51:20.274Z,2556.00
2018-08-27T05:52:20.382Z,1964.00
2018-08-27T05:53:20.246Z,1948.00
2018-08-27T05:54:20.226Z,2068.00
2018-08-27T05:55:20.207Z,2092.00
2018-08-27T05:56:20.198Z,1828.00
2018-08-27T05:57:20.180Z,1844.00
2018-08-27T05:58:20.157Z,1620.00
2018-08-27T05:59:20.146Z,1360.00
2018-08-27T06:00:20.129Z,1356.00
2018-08-27T06:01:20.171Z,1332.00
2018-08-27T06:02:20.088Z,1368.00
2018-08-27T06:03:20.074Z,1208.00
2018-08-27T06:04:20.058Z,1040.00
2018-08-27T06:05:20.146Z,1136.00
2018-08-27T06:06:20.020Z,1308.00
2018-08-27T06:07:20.002Z,1536.00
2018-08-27T06:08:19.984Z,1464.00
2018-08-27T06:09:20.006Z,1324.00
2018-08-27T06:10:19.949Z,1276.00
2018-08-27T06:11:19.937Z,1068.00
2018-08-27T06:12:19.917Z,1016.00
2018-08-27T06:13:19.911Z,1196.00
2018-08-27T06:14:19.884Z,1724.00
2018-08-27T06:15:19.864Z,1916.00
2018-08-27T06:16:19.914Z,1520.00
2018-08-27T06:17:19.833Z,1584.00
2018-08-27T06:18:19.815Z,1328.00
2018-08-27T06:19:19.805Z,1164.00
2018-08-27T06:20:19.788Z,1204.00
2018-08-27T06:21:19.764Z,1160.00
2018-08-27T06:22:19.839Z,1320.00
2018-08-27T06:23:19.730Z,1320.00
2018-08-27T06:24:19.712Z,1256.00
2018-08-27T06:25:19.695Z,1476.00
2018-08-27T06:26:19.679Z,1348.00
2018-08-27T06:27:19.666Z,1304.00
2018-08-27T06:28:19.644Z,1352.00
2018-08-27T06:29:19.626Z,1484.00
2018-08-27T06:30:19.619Z,1496.00
2018-08-27T06:31:19.597Z,1676.00
2018-08-27T06:32:19.599Z,1656.00
2018-08-27T06:33:19.561Z,1816.00
2018-08-27T06:34:19.552Z,1648.00
2018-08-27T06:35:19.528Z,1740.00
2018-08-27T06:36:19.515Z,1768.00
2018-08-27T06:37:19.502Z,1836.00
2018-08-27T06:38:19.479Z,1604.00
2018-08-27T06:39:19.460Z,1756.00
2018-08-27T06:40:19.445Z,2096.00
2018-08-27T06:41:19.432Z,1824.00
2018-08-27T06:42:19.414Z,1900.00
2018-08-27T06:43:19.391Z,2172.00
2018-08-27T06:44:19.379Z,2520.00
2018-08-27T06:45:19.367Z,2460.00
2018-08-27T06:46:19.416Z,2460.00
2018-08-27T06:47:19.327Z,2536.00
2018-08-27T06:48:19.315Z,2596.00
2018-08-27T06:49:19.292Z,2228.00
2018-08-27T06:50:19.279Z,1768.00
2018-08-27T06:51:19.255Z,2284.00
2018-08-27T06:52:19.242Z,1788.00
2018-08-27T06:53:19.221Z,2132.00
2018-08-27T06:54:19.223Z,2244.00
2018-08-27T06:55:19.191Z,2524.00
2018-08-27T06:56:19.174Z,2456.00
2018-08-27T06:57:19.155Z,2948.00
2018-08-27T06:58:19.139Z,2516.00
2018-08-27T06:59:19.122Z,3444.00
2018-08-27T07:00:19.106Z,3156.00
2018-08-27T07:01:19.086Z,2444.00
2018-08-27T07:02:19.172Z,1780.00
2018-08-27T07:03:19.057Z,1748.00
2018-08-27T07:04:19.037Z,1896.00
2018-08-27T07:05:19.019Z,2288.00
2018-08-27T07:06:19.014Z,2324.00
2018-08-27T07:07:18.988Z,2456.00
2018-08-27T07:08:18.969Z,2452.00
2018-08-27T07:09:18.952Z,2708.00
2018-08-27T07:10:18.948Z,2304.00
2018-08-27T07:11:18.920Z,2504.00
2018-08-27T07:12:18.902Z,2416.00
2018-08-27T07:13:18.885Z,2220.00
2018-08-27T07:14:18.868Z,2384.00
2018-08-27T07:15:18.861Z,2228.00
2018-08-27T07:16:18.835Z,2276.00
2018-08-27T07:17:18.820Z,2404.00
2018-08-27T07:18:18.802Z,2496.00
2018-08-27T07:19:18.787Z,2472.00
2018-08-27T07:20:18.807Z,2684.00
2018-08-27T07:21:18.753Z,2952.00
2018-08-27T07:22:18.738Z,2972.00
2018-08-27T07:23:18.718Z,3280.00
2018-08-27T07:24:18.705Z,3040.00
2018-08-27T07:25:18.687Z,3464.00
2018-08-27T07:26:18.669Z,3992.00
2018-08-27T07:27:18.670Z,3820.00
2018-08-27T07:28:18.642Z,2944.00
2018-08-27T07:29:18.719Z,2776.00
2018-08-27T07:30:18.604Z,2968.00
2018-08-27T07:31:18.586Z,3072.00
2018-08-27T07:32:18.568Z,2812.00
2018-08-27T07:33:18.552Z,3128.00
2018-08-27T07:34:18.534Z,2968.00
2018-08-27T07:35:18.528Z,2864.00
2018-08-27T07:36:18.576Z,3124.00
2018-08-27T07:37:18.485Z,3472.00
2018-08-27T07:38:18.483Z,3532.00
2018-08-27T07:39:18.454Z,3448.00
2018-08-27T07:40:18.470Z,3080.00
2018-08-27T07:41:18.419Z,3216.00
2018-08-27T07:42:18.411Z,3292.00
2018-08-27T07:43:18.423Z,2952.00
2018-08-27T07:44:18.376Z,3644.00
2018-08-27T07:45:18.355Z,3448.00
2018-08-27T07:46:18.338Z,2972.00
2018-08-27T07:47:18.320Z,3096.00
2018-08-27T07:48:18.306Z,3188.00
2018-08-27T07:49:18.293Z,3728.00
2018-08-27T07:50:18.271Z,5568.00
2018-08-27T07:51:18.351Z,7912.00
2018-08-27T07:52:18.242Z,11068.00
2018-08-27T07:53:18.222Z,12060.00
2018-08-27T07:54:18.205Z,9400.00
2018-08-27T07:55:18.194Z,5568.00
2018-08-27T07:56:18.175Z,4256.00
2018-08-27T07:57:18.161Z,4856.00
2018-08-27T07:58:18.182Z,5184.00
2018-08-27T07:59:18.175Z,6636.00
2018-08-27T08:00:18.111Z,7380.00
2018-08-27T08:01:18.101Z,5764.00
2018-08-27T08:02:18.084Z,4552.00
2018-08-27T08:03:18.074Z,4524.00
2018-08-27T08:04:18.048Z,7404.00
2018-08-27T08:05:18.034Z,6712.00
2018-08-27T08:06:18.024Z,7496.00
2018-08-27T08:07:18.035Z,7220.00
2018-08-27T08:08:17.984Z,6172.00
2018-08-27T08:09:17.965Z,6556.00
2018-08-27T08:10:17.950Z,9440.00
2018-08-27T08:11:17.934Z,6796.00
2018-08-27T08:12:17.926Z,6224.00
2018-08-27T08:13:17.903Z,5304.00
2018-08-27T08:14:17.887Z,5404.00
2018-08-27T08:15:17.873Z,4668.00
2018-08-27T08:16:17.860Z,4948.00
2018-08-27T08:17:17.842Z,6388.00
2018-08-27T08:18:17.827Z,5984.00
2018-08-27T08:19:17.827Z,4936.00
2018-08-27T08:20:17.794Z,4772.00
2018-08-27T08:21:17.780Z,4776.00
2018-08-27T08:22:17.762Z,4840.00
2018-08-27T08:23:17.749Z,6192.00
2018-08-27T08:24:17.732Z,6884.00
2018-08-27T08:25:17.716Z,7828.00
2018-08-27T08:26:17.698Z,6308.00
2018-08-27T08:27:17.684Z,6880.00
2018-08-27T08:28:17.666Z,6188.00
2018-08-27T08:29:17.655Z,5312.00
2018-08-27T08:30:17.644Z,4768.00
2018-08-27T08:31:17.620Z,4416.00
2018-08-27T08:32:17.607Z,5268.00
2018-08-27T08:33:17.659Z,6328.00
2018-08-27T08:34:17.573Z,7832.00
2018-08-27T08:35:17.559Z,9672.00
2018-08-27T08:36:17.543Z,8100.00
2018-08-27T08:37:17.528Z,6760.00
2018-08-27T08:38:17.519Z,6056.00
2018-08-27T08:39:17.496Z,6452.00
2018-08-27T08:40:17.482Z,7336.00
2018-08-27T08:41:17.472Z,6828.00
2018-08-27T08:42:17.571Z,8532.00
2018-08-27T08:43:17.439Z,10828.00
2018-08-27T08:44:17.418Z,8300.00
2018-08-27T08:45:17.403Z,7824.00
2018-08-27T08:46:17.390Z,9496.00
2018-08-27T08:47:17.373Z,10564.00
2018-08-27T08:48:17.358Z,7348.00
2018-08-27T08:49:17.342Z,5828.00
2018-08-27T08:50:17.335Z,4396.00
2018-08-27T08:51:17.311Z,3972.00
2018-08-27T08:52:17.294Z,4056.00
2018-08-27T08:53:17.340Z,4344.00
2018-08-27T08:54:17.280Z,5416.00
2018-08-27T08:55:17.254Z,5184.00
2018-08-27T08:56:17.236Z,4420.00
2018-08-27T08:57:17.219Z,6796.00
2018-08-27T08:58:17.266Z,4844.00
2018-08-27T08:59:17.189Z,5168.00
2018-08-27T09:00:17.189Z,7744.00
2018-08-27T09:01:17.183Z,6292.00
2018-08-27T09:02:17.144Z,5404.00
2018-08-27T09:03:17.130Z,5652.00
2018-08-27T09:04:17.116Z,4656.00
2018-08-27T09:05:17.099Z,5140.00
2018-08-27T09:06:17.105Z,3680.00
2018-08-27T09:07:17.087Z,3780.00
2018-08-27T09:08:17.152Z,3532.00
2018-08-27T09:09:17.046Z,2984.00
2018-08-27T09:10:17.030Z,3020.00
2018-08-27T09:11:17.007Z,4092.00
2018-08-27T09:12:16.999Z,5540.00
2018-08-27T09:13:16.980Z,5844.00
2018-08-27T09:14:16.968Z,7532.00
2018-08-27T09:15:16.946Z,6496.00
2018-08-27T09:16:16.932Z,6704.00
2018-08-27T09:17:17.049Z,7248.00
2018-08-27T09:18:16.906Z,7316.00
2018-08-27T09:19:16.913Z,7272.00
2018-08-27T09:20:16.868Z,6084.00
2018-08-27T09:21:16.854Z,6032.00
2018-08-27T09:22:16.842Z,7068.00
2018-08-27T09:23:16.831Z,7724.00
2018-08-27T09:24:16.807Z,6444.00
2018-08-27T09:25:16.794Z,7436.00
2018-08-27T09:26:16.777Z,8456.00
2018-08-27T09:27:16.780Z,8472.00
2018-08-27T09:28:16.746Z,9000.00
2018-08-27T09:29:16.737Z,8336.00
2018-08-27T09:30:16.719Z,7240.00
2018-08-27T09:31:16.768Z,7216.00
2018-08-27T09:32:16.690Z,6844.00
2018-08-27T09:33:16.734Z,7092.00
2018-08-27T09:34:16.657Z,6760.00
2018-08-27T09:35:16.643Z,6536.00
2018-08-27T09:36:16.641Z,5828.00
2018-08-27T09:37:16.614Z,6516.00
2018-08-27T09:38:16.606Z,7960.00
2018-08-27T09:39:16.580Z,6656.00
2018-08-27T09:40:16.568Z,6692.00
2018-08-27T09:41:16.550Z,6320.00
2018-08-27T09:42:16.536Z,6896.00
2018-08-27T09:43:16.529Z,7004.00
2018-08-27T09:44:16.505Z,6504.00
2018-08-27T09:45:16.492Z,6484.00
2018-08-27T09:46:16.477Z,5500.00
2018-08-27T09:47:16.467Z,5124.00
2018-08-27T09:48:16.453Z,5092.00
2018-08-27T09:49:16.437Z,3956.00
2018-08-27T09:50:16.429Z,3408.00
2018-08-27T09:51:16.401Z,3864.00
2018-08-27T09:52:16.393Z,4136.00
2018-08-27T09:53:16.473Z,4224.00
2018-08-27T09:54:16.356Z,5244.00
2018-08-27T09:55:16.342Z,5172.00
2018-08-27T09:56:16.330Z,5264.00
2018-08-27T09:57:16.310Z,5224.00
2018-08-27T09:58:16.294Z,4656.00
2018-08-27T09:59:16.286Z,4760.00
2018-08-27T10:00:16.264Z,5348.00
2018-08-27T10:01:16.265Z,5680.00
2018-08-27T10:02:16.243Z,6344.00
2018-08-27T10:03:16.225Z,6616.00
2018-08-27T10:04:16.221Z,8688.00
2018-08-27T10:05:16.193Z,8776.00
2018-08-27T10:06:16.178Z,13188.00
2018-08-27T10:07:16.168Z,13596.00
2018-08-27T10:08:16.143Z,12336.00
2018-08-27T10:09:16.131Z,11492.00
2018-08-27T10:10:16.116Z,15296.00
2018-08-27T10:11:16.157Z,17856.00
2018-08-27T10:12:16.085Z,16680.00
2018-08-27T10:13:16.085Z,14260.00
2018-08-27T10:14:16.071Z,13776.00
2018-08-27T10:15:16.048Z,14808.00
2018-08-27T10:16:16.024Z,14188.00
2018-08-27T10:17:16.011Z,13884.00
2018-08-27T10:18:15.999Z,10228.00
2018-08-27T10:19:15.984Z,10064.00
2018-08-27T10:20:15.974Z,11244.00
2018-08-27T10:21:15.961Z,14636.00
2018-08-27T10:22:15.980Z,16904.00
2018-08-27T10:23:15.929Z,14132.00
2018-08-27T10:24:15.921Z,14580.00
2018-08-27T10:25:15.906Z,15416.00
2018-08-27T10:26:15.933Z,16308.00
2018-08-27T10:27:15.998Z,15148.00
2018-08-27T10:28:15.854Z,14796.00
2018-08-27T10:29:15.849Z,11668.00
2018-08-27T10:30:15.931Z,10696.00
2018-08-27T10:31:15.820Z,10572.00
2018-08-27T10:32:15.802Z,11500.00
2018-08-27T10:33:15.787Z,7996.00
2018-08-27T10:34:15.781Z,8656.00
2018-08-27T10:35:15.764Z,7460.00
2018-08-27T10:36:15.752Z,7316.00
2018-08-27T10:37:15.789Z,7452.00
2018-08-27T10:38:15.712Z,7452.00
2018-08-27T10:39:15.702Z,6980.00
2018-08-27T10:40:15.685Z,6676.00
2018-08-27T10:41:15.681Z,10600.00
2018-08-27T10:42:15.661Z,9444.00
2018-08-27T10:43:15.641Z,12332.00
2018-08-27T10:44:15.625Z,11868.00
2018-08-27T10:45:15.624Z,13568.00
2018-08-27T10:46:15.686Z,14452.00
2018-08-27T10:47:15.587Z,16756.00
2018-08-27T10:48:15.571Z,20800.00
2018-08-27T10:49:15.568Z,17600.00
2018-08-27T10:50:15.586Z,15636.00
2018-08-27T10:51:15.533Z,15528.00
2018-08-27T10:52:15.519Z,18496.00
2018-08-27T10:53:15.505Z,16992.00
2018-08-27T10:54:15.502Z,14672.00
2018-08-27T10:55:15.487Z,14832.00
2018-08-27T10:56:15.467Z,16052.00
2018-08-27T10:57:15.450Z,15432.00
2018-08-27T10:58:15.446Z,13252.00
2018-08-27T10:59:15.430Z,14324.00
2018-08-27T11:00:15.417Z,13152.00
2018-08-27T11:01:15.397Z,13108.00
2018-08-27T11:02:15.386Z,13220.00
2018-08-27T11:03:15.369Z,14348.00
2018-08-27T11:04:15.358Z,11644.00
2018-08-27T11:05:15.435Z,10164.00
2018-08-27T11:06:15.334Z,9596.00
2018-08-27T11:07:15.321Z,11384.00
2018-08-27T11:08:15.305Z,10844.00
2018-08-27T11:09:15.289Z,11684.00
2018-08-27T11:10:15.398Z,13360.00
2018-08-27T11:11:15.266Z,13032.00
2018-08-27T11:12:15.249Z,12468.00
2018-08-27T11:13:15.259Z,11592.00
2018-08-27T11:14:15.253Z,10476.00
2018-08-27T11:15:15.215Z,11772.00
2018-08-27T11:16:15.206Z,14152.00
2018-08-27T11:17:15.205Z,15684.00
2018-08-27T11:18:15.186Z,13920.00
2018-08-27T11:19:15.161Z,14456.00
2018-08-27T11:20:15.269Z,14040.00
2018-08-27T11:21:15.134Z,18560.00
2018-08-27T11:22:15.119Z,22784.00
2018-08-27T11:23:15.107Z,22688.00
2018-08-27T11:24:15.102Z,19008.00
2018-08-27T11:25:15.087Z,14852.00
2018-08-27T11:26:15.157Z,18976.00
2018-08-27T11:27:15.062Z,20832.00
2018-08-27T11:28:15.050Z,18816.00
2018-08-27T11:29:15.087Z,19136.00
2018-08-27T11:30:15.023Z,47968.00
2018-08-27T11:31:15.010Z,43712.00
2018-08-27T11:32:14.997Z,48640.00
2018-08-27T11:33:14.978Z,49920.00
2018-08-27T11:34:14.968Z,50528.00
2018-08-27T11:35:14.966Z,19424.00
2018-08-27T11:36:14.953Z,18944.00
2018-08-27T11:37:14.931Z,45088.00
2018-08-27T11:38:14.921Z,18048.00
2018-08-27T11:39:14.923Z,8972.00
2018-08-27T11:40:14.903Z,7544.00
2018-08-27T11:41:14.896Z,9732.00
2018-08-27T11:42:14.889Z,7780.00
2018-08-27T11:43:14.892Z,7068.00
2018-08-27T11:44:14.857Z,6184.00
2018-08-27T11:45:14.888Z,5180.00
2018-08-27T11:46:14.833Z,4252.00
2018-08-27T11:47:14.822Z,3648.00
2018-08-27T11:48:14.818Z,2772.00
2018-08-27T11:49:14.796Z,2468.00
2018-08-27T11:50:14.817Z,2224.00
2018-08-27T11:51:14.774Z,1696.00
2018-08-27T11:52:14.769Z,1180.00
2018-08-27T11:53:14.750Z,1224.00
2018-08-27T11:54:14.743Z,1276.00
2018-08-27T11:55:14.749Z,1108.00
2018-08-27T11:56:14.712Z,1012.00
2018-08-27T11:57:14.699Z,1148.00
2018-08-27T11:58:14.688Z,2424.00
2018-08-27T11:59:14.674Z,2696.00
2018-08-27T12:00:14.661Z,3596.00
2018-08-27T12:01:14.654Z,3916.00
2018-08-27T12:02:14.772Z,3644.00
2018-08-27T12:03:14.621Z,4668.00
2018-08-27T12:04:14.609Z,6896.00
2018-08-27T12:05:14.611Z,7192.00
2018-08-27T12:06:14.600Z,7404.00
2018-08-27T12:07:14.586Z,8192.00
2018-08-27T12:08:14.559Z,10760.00
2018-08-27T12:09:14.542Z,12520.00
2018-08-27T12:10:14.537Z,11932.00
2018-08-27T12:11:14.517Z,15112.00
2018-08-27T12:12:14.508Z,17560.00
2018-08-27T12:13:14.498Z,16504.00
2018-08-27T12:14:14.476Z,17108.00
2018-08-27T12:15:14.469Z,17604.00
2018-08-27T12:16:14.454Z,18656.00
2018-08-27T12:17:14.436Z,19904.00
2018-08-27T12:18:14.425Z,20544.00
2018-08-27T12:19:14.412Z,21376.00
2018-08-27T12:20:14.397Z,22144.00
2018-08-27T12:21:14.385Z,21920.00
2018-08-27T12:22:14.372Z,21184.00
2018-08-27T12:23:14.360Z,19584.00
2018-08-27T12:24:14.344Z,19328.00
2018-08-27T12:25:14.358Z,19584.00
2018-08-27T12:26:14.332Z,18496.00
2018-08-27T12:27:14.308Z,17384.00
2018-08-27T12:28:14.295Z,16800.00